createdAt,value
2023-02-04T00:01:39.290Z,2.67
2023-02-04T00:04:05.811Z,2.72
2023-02-04T00:06:32.281Z,2.88
2023-02-04T00:08:58.768Z,2.05
2023-02-04T00:11:25.282Z,2.88
2023-02-04T00:13:53.376Z,2.28
2023-02-04T00:16:19.887Z,2.38
2023-02-04T00:18:46.370Z,2.10
2023-02-04T00:21:12.885Z,2.17
2023-02-04T00:23:39.471Z,2.40
2023-02-04T00:26:06.164Z,2.55
2023-02-04T00:28:32.792Z,2.35
2023-02-04T00:30:59.343Z,2.35
2023-02-04T00:33:25.969Z,2.13
2023-02-04T00:35:52.414Z,2.10
2023-02-04T00:38:20.795Z,2.42
2023-02-04T00:40:47.216Z,2.38
2023-02-04T00:43:13.711Z,1.75
2023-02-04T00:45:40.171Z,2.40
2023-02-04T00:48:06.682Z,2.10
2023-02-04T00:50:33.306Z,1.80
2023-02-04T00:52:59.845Z,2.22
2023-02-04T00:55:26.298Z,2.10
2023-02-04T00:57:52.776Z,2.40
2023-02-04T01:00:19.547Z,1.98
2023-02-04T01:02:46.128Z,1.75
2023-02-04T01:05:13.309Z,1.90
2023-02-04T01:07:39.872Z,1.90
2023-02-04T01:10:06.683Z,2.22
2023-02-04T01:12:33.618Z,1.85
2023-02-04T01:15:00.249Z,1.70
2023-02-04T01:17:26.792Z,2.38
2023-02-04T01:19:53.475Z,1.63
2023-02-04T01:22:20.195Z,2.17
2023-02-04T01:24:46.922Z,1.95
2023-02-04T01:27:33.709Z,2.20
2023-02-04T01:30:00.191Z,2.15
2023-02-04T01:32:26.726Z,2.10
2023-02-04T01:34:53.238Z,2.00
2023-02-04T01:37:19.693Z,2.03
2023-02-04T01:39:46.268Z,1.88
2023-02-04T01:42:13.370Z,1.40
2023-02-04T01:44:40.043Z,2.08
2023-02-04T01:47:06.754Z,1.70
2023-02-04T01:49:33.364Z,1.77
2023-02-04T01:52:00.230Z,1.90
2023-02-04T01:54:27.230Z,1.92
2023-02-04T01:56:53.758Z,1.67
2023-02-04T01:59:20.307Z,1.50
2023-02-04T02:01:49.182Z,1.90
2023-02-04T02:04:20.788Z,1.48
2023-02-04T02:09:16.847Z,1.90
2023-02-04T02:11:43.876Z,1.55
2023-02-04T02:14:11.032Z,1.40
2023-02-04T02:16:37.603Z,1.58
2023-02-04T02:19:05.530Z,1.55
2023-02-04T02:21:56.750Z,1.67
2023-02-04T02:24:34.744Z,1.50
2023-02-04T02:27:06.023Z,1.67
2023-02-04T02:29:32.777Z,1.30
2023-02-04T02:31:59.968Z,1.60
2023-02-04T02:34:28.480Z,1.67
2023-02-04T02:36:55.699Z,1.40
2023-02-04T02:39:23.606Z,1.38
2023-02-04T02:41:50.346Z,1.75
2023-02-04T02:44:17.997Z,1.50
2023-02-04T02:46:45.002Z,1.58
2023-02-04T02:49:16.337Z,1.60
2023-02-04T02:51:43.330Z,2.05
2023-02-04T02:54:22.476Z,1.70
2023-02-04T02:56:51.009Z,1.52
2023-02-04T02:59:18.350Z,1.42
2023-02-04T03:01:47.901Z,1.60
2023-02-04T03:04:17.003Z,1.45
2023-02-04T03:06:43.607Z,1.75
2023-02-04T03:09:10.328Z,1.75
2023-02-04T03:11:37.891Z,1.70
2023-02-04T03:14:05.098Z,1.88
2023-02-04T03:16:32.985Z,2.00
2023-02-04T03:19:04.917Z,1.83
2023-02-04T03:21:31.781Z,2.40
2023-02-04T03:23:58.494Z,1.63
2023-02-04T03:26:26.036Z,1.67
2023-02-04T03:28:55.761Z,1.95
2023-02-04T03:31:23.846Z,1.70
2023-02-04T03:33:50.436Z,2.05
2023-02-04T03:36:16.961Z,1.52
2023-02-04T03:38:43.459Z,1.70
2023-02-04T03:41:09.945Z,2.00
2023-02-04T03:43:36.371Z,1.85
2023-02-04T03:46:02.936Z,2.33
2023-02-04T03:48:29.383Z,2.33
2023-02-04T03:50:55.895Z,1.80
2023-02-04T03:53:22.341Z,2.10
2023-02-04T03:55:48.824Z,2.03
2023-02-04T03:58:15.418Z,1.90
2023-02-04T04:00:41.952Z,2.05
2023-02-04T04:03:08.434Z,2.10
2023-02-04T04:05:35.046Z,2.25
2023-02-04T04:08:01.787Z,1.73
2023-02-04T04:10:28.367Z,2.00
2023-02-04T04:12:55.010Z,2.42
2023-02-04T04:15:21.537Z,1.73
2023-02-04T04:17:48.004Z,1.90
2023-02-04T04:20:14.830Z,1.90
2023-02-04T04:22:41.303Z,1.73
2023-02-04T04:25:08.749Z,1.83
2023-02-04T04:27:35.467Z,2.45
2023-02-04T04:30:02.515Z,2.10
2023-02-04T04:32:28.983Z,1.70
2023-02-04T04:34:55.487Z,1.50
2023-02-04T04:37:21.935Z,1.30
2023-02-04T04:39:48.431Z,1.85
2023-02-04T04:42:14.858Z,1.60
2023-02-04T04:44:41.359Z,1.60
2023-02-04T04:47:07.869Z,1.40
2023-02-04T04:49:34.389Z,1.70
2023-02-04T04:52:00.871Z,1.48
2023-02-04T04:54:27.452Z,1.23
2023-02-04T04:56:53.900Z,1.80
2023-02-04T04:59:20.397Z,1.30
2023-02-04T05:01:46.876Z,1.10
2023-02-04T05:04:13.389Z,1.55
2023-02-04T05:06:39.837Z,1.38
2023-02-04T05:09:06.364Z,1.17
2023-02-04T05:11:32.801Z,1.38
2023-02-04T05:13:59.305Z,1.40
2023-02-04T05:16:25.803Z,1.42
2023-02-04T05:18:52.346Z,1.27
2023-02-04T05:21:18.813Z,1.20
2023-02-04T05:23:45.314Z,1.40
2023-02-04T05:26:15.329Z,1.20
2023-02-04T05:28:48.596Z,1.23
2023-02-04T05:31:15.153Z,1.02
2023-02-04T05:33:41.674Z,1.00
2023-02-04T05:36:08.174Z,2.17
2023-02-04T05:38:34.657Z,1.20
2023-02-04T05:41:01.149Z,1.27
2023-02-04T05:43:27.670Z,1.45
2023-02-04T05:45:54.161Z,2.35
2023-02-04T05:48:20.664Z,1.30
2023-02-04T05:50:47.104Z,1.05
2023-02-04T05:53:13.602Z,1.20
2023-02-04T05:55:40.063Z,1.30
2023-02-04T05:58:06.550Z,1.33
2023-02-04T06:00:33.226Z,1.10
2023-02-04T06:02:59.907Z,1.23
2023-02-04T06:05:26.397Z,1.30
2023-02-04T06:07:52.955Z,1.33
2023-02-04T06:10:19.600Z,1.30
2023-02-04T06:12:46.119Z,0.95
2023-02-04T06:15:12.626Z,1.10
2023-02-04T06:17:39.315Z,1.00
2023-02-04T06:20:06.832Z,1.40
2023-02-04T06:22:33.389Z,1.45
2023-02-04T06:24:59.850Z,1.10
2023-02-04T06:27:26.430Z,1.00
2023-02-04T06:29:53.609Z,1.15
2023-02-04T06:32:21.426Z,1.00
2023-02-04T06:34:47.891Z,1.45
2023-02-04T06:37:14.564Z,1.75
2023-02-04T06:39:41.077Z,1.48
2023-02-04T06:42:07.578Z,1.50
2023-02-04T06:44:34.042Z,1.85
2023-02-04T06:47:00.554Z,1.67
2023-02-04T06:49:27.026Z,1.90
2023-02-04T06:51:53.492Z,2.55
2023-02-04T06:54:19.964Z,2.10
2023-02-04T06:56:46.419Z,1.52
2023-02-04T06:59:12.901Z,1.50
2023-02-04T07:01:39.371Z,1.60
2023-02-04T07:04:05.945Z,1.95
2023-02-04T07:06:33.544Z,1.33
2023-02-04T07:09:00.181Z,1.90
2023-02-04T07:11:26.634Z,1.55
2023-02-04T07:13:53.060Z,1.30
2023-02-04T07:16:19.803Z,1.35
2023-02-04T07:18:46.313Z,1.30
2023-02-04T07:21:12.763Z,1.50
2023-02-04T07:23:39.268Z,1.88
2023-02-04T07:26:05.882Z,1.60
2023-02-04T07:28:32.426Z,1.60
2023-02-04T07:30:59.059Z,1.40
2023-02-04T07:33:25.635Z,1.83
2023-02-04T07:35:52.175Z,1.77
2023-02-04T07:38:18.723Z,1.90
2023-02-04T07:40:45.185Z,1.65
2023-02-04T07:43:11.912Z,1.90
2023-02-04T07:45:38.797Z,1.75
2023-02-04T07:48:05.649Z,1.60
2023-02-04T07:50:32.529Z,1.55
2023-02-04T07:52:59.228Z,1.55
2023-02-04T07:55:25.654Z,1.60
2023-02-04T07:57:52.257Z,1.77
2023-02-04T08:00:19.129Z,1.52
2023-02-04T08:02:45.727Z,1.60
2023-02-04T08:05:12.347Z,1.80
2023-02-04T08:07:39.323Z,1.50
2023-02-04T08:10:07.605Z,1.60
2023-02-04T08:12:34.245Z,1.75
2023-02-04T08:15:00.930Z,1.67
2023-02-04T08:17:27.828Z,1.70
2023-02-04T08:19:54.491Z,1.83
2023-02-04T08:22:20.989Z,1.90
2023-02-04T08:24:47.500Z,2.25
2023-02-04T08:27:14.358Z,2.10
2023-02-04T08:29:40.828Z,2.15
2023-02-04T08:32:08.186Z,2.10
2023-02-04T08:34:34.687Z,2.35
2023-02-04T08:37:01.196Z,2.22
2023-02-04T08:39:27.713Z,2.03
2023-02-04T08:41:54.221Z,2.00
2023-02-04T08:44:20.694Z,1.70
2023-02-04T08:46:47.279Z,1.67
2023-02-04T08:49:13.756Z,1.88
2023-02-04T08:51:40.277Z,1.90
2023-02-04T08:54:06.732Z,1.55
2023-02-04T08:56:33.248Z,1.70
2023-02-04T08:58:59.708Z,1.70
2023-02-04T09:01:26.184Z,1.60
2023-02-04T09:03:52.734Z,1.42
2023-02-04T09:06:19.286Z,1.50
2023-02-04T09:08:45.788Z,1.60
2023-02-04T09:11:12.267Z,1.83
2023-02-04T09:13:39.018Z,2.00
2023-02-04T09:16:05.939Z,1.63
2023-02-04T09:18:32.483Z,1.70
2023-02-04T09:20:59.260Z,1.48
2023-02-04T09:23:25.780Z,1.45
2023-02-04T09:25:52.375Z,1.50
2023-02-04T09:28:19.134Z,1.20
2023-02-04T09:30:46.949Z,1.30
2023-02-04T09:33:15.691Z,1.40
2023-02-04T09:35:42.258Z,1.30
2023-02-04T09:38:08.801Z,1.27
2023-02-04T09:40:40.217Z,1.33
2023-02-04T09:43:06.832Z,1.20
2023-02-04T09:45:35.281Z,1.08
2023-02-04T09:48:04.331Z,1.42
2023-02-04T09:50:32.075Z,1.20
2023-02-04T09:53:03.008Z,1.50
2023-02-04T09:55:32.579Z,1.07
2023-02-04T09:57:59.084Z,1.00
2023-02-04T10:00:27.737Z,1.33
2023-02-04T10:02:54.881Z,1.55
2023-02-04T10:05:33.517Z,1.50
2023-02-04T10:08:00.525Z,1.20
2023-02-04T10:10:27.823Z,1.27
2023-02-04T10:12:58.562Z,1.20
2023-02-04T10:15:25.724Z,1.20
2023-02-04T10:18:05.462Z,1.00
2023-02-04T10:20:32.218Z,1.00
2023-02-04T10:22:58.936Z,1.20
2023-02-04T10:25:26.223Z,0.85
2023-02-04T10:27:56.843Z,1.05
2023-02-04T10:30:26.861Z,0.77
2023-02-04T10:32:53.997Z,1.10
2023-02-04T10:35:22.264Z,1.00
2023-02-04T10:38:04.252Z,0.93
2023-02-04T10:40:32.420Z,1.00
2023-02-04T10:42:59.924Z,1.13
2023-02-04T10:45:30.515Z,0.90
2023-02-04T10:47:57.252Z,1.00
2023-02-04T10:50:25.853Z,1.02
2023-02-04T10:52:56.415Z,0.95
2023-02-04T10:55:24.100Z,0.93
2023-02-04T10:57:52.720Z,1.02
2023-02-04T11:00:20.561Z,0.90
2023-02-04T11:03:06.843Z,0.80
2023-02-04T11:05:35.033Z,0.90
2023-02-04T11:08:02.763Z,0.95
2023-02-04T11:10:34.586Z,1.10
2023-02-04T11:13:05.150Z,0.80
2023-02-04T11:15:37.710Z,0.75
2023-02-04T11:18:06.216Z,1.00
2023-02-04T11:20:34.607Z,1.00
2023-02-04T11:23:16.966Z,0.77
2023-02-04T11:25:43.608Z,1.00
2023-02-04T11:28:24.843Z,1.20
2023-02-04T11:31:14.052Z,1.05
2023-02-04T11:33:42.175Z,1.05
2023-02-04T11:36:12.056Z,0.70
2023-02-04T11:38:38.973Z,0.90
2023-02-04T11:41:05.991Z,0.98
2023-02-04T11:43:35.737Z,1.08
2023-02-04T11:46:13.507Z,0.90
2023-02-04T11:48:40.194Z,0.85
2023-02-04T11:51:16.233Z,0.90
2023-02-04T11:53:42.932Z,1.00
2023-02-04T11:56:22.904Z,0.80
2023-02-04T11:58:50.834Z,0.90
2023-02-04T12:01:18.172Z,0.68
2023-02-04T12:03:49.924Z,0.77
2023-02-04T12:06:24.303Z,1.65
2023-02-04T12:08:50.946Z,0.70
2023-02-04T12:11:29.453Z,0.82
2023-02-04T12:13:58.255Z,1.00
2023-02-04T12:16:25.448Z,0.93
2023-02-04T12:18:52.015Z,1.30
2023-02-04T12:21:19.169Z,0.85
2023-02-04T12:23:45.641Z,1.13
2023-02-04T12:26:12.110Z,1.00
2023-02-04T12:28:38.749Z,0.93
2023-02-04T12:31:05.399Z,0.60
2023-02-04T12:33:32.203Z,0.98
2023-02-04T12:35:58.640Z,1.20
2023-02-04T12:38:25.171Z,0.80
2023-02-04T12:40:51.644Z,0.93
2023-02-04T12:43:18.142Z,0.80
2023-02-04T12:45:44.599Z,0.95
2023-02-04T12:48:11.989Z,0.63
2023-02-04T12:50:38.556Z,1.00
2023-02-04T12:53:05.021Z,0.93
2023-02-04T12:55:31.878Z,1.20
2023-02-04T12:57:58.786Z,1.20
2023-02-04T13:00:25.342Z,0.73
2023-02-04T13:02:51.848Z,0.85
2023-02-04T13:05:18.566Z,1.00
2023-02-04T13:07:45.034Z,0.68
2023-02-04T13:10:12.959Z,0.85
2023-02-04T13:12:40.673Z,0.88
2023-02-04T13:15:08.228Z,0.65
2023-02-04T13:17:34.776Z,0.60
2023-02-04T13:20:01.370Z,0.50
2023-02-04T13:22:28.054Z,0.70
2023-02-04T13:24:54.661Z,0.93
2023-02-04T13:27:21.197Z,0.90
2023-02-04T13:29:47.736Z,0.80
2023-02-04T13:32:14.217Z,0.60
2023-02-04T13:34:40.751Z,1.00
2023-02-04T13:37:07.251Z,0.80
2023-02-04T13:39:33.725Z,0.80
2023-02-04T13:42:00.181Z,0.82
2023-02-04T13:44:26.717Z,0.80
2023-02-04T13:46:53.309Z,1.75
2023-02-04T13:49:19.951Z,0.90
2023-02-04T13:51:46.436Z,1.23
2023-02-04T13:54:13.080Z,0.73
2023-02-04T13:56:39.560Z,0.90
2023-02-04T13:59:06.415Z,0.80
2023-02-04T14:01:32.912Z,0.70
2023-02-04T14:03:59.402Z,0.90
2023-02-04T14:06:25.959Z,1.30
2023-02-04T14:08:52.445Z,0.80
2023-02-04T14:11:18.997Z,1.50
2023-02-04T14:13:45.545Z,0.82
2023-02-04T14:16:12.005Z,1.65
2023-02-04T14:18:38.479Z,0.90
2023-02-04T14:21:05.151Z,1.20
2023-02-04T14:23:31.635Z,1.33
2023-02-04T14:25:58.118Z,0.93
2023-02-04T14:28:24.707Z,1.10
2023-02-04T14:30:51.238Z,0.75
2023-02-04T14:33:17.796Z,0.60
2023-02-04T14:35:44.366Z,1.10
2023-02-04T14:38:10.853Z,1.02
2023-02-04T14:40:37.351Z,1.00
2023-02-04T14:43:03.841Z,1.00
2023-02-04T14:45:30.331Z,1.52
2023-02-04T14:47:56.833Z,1.17
2023-02-04T14:50:23.340Z,0.80
2023-02-04T14:52:49.807Z,0.80
2023-02-04T14:55:16.319Z,0.80
2023-02-04T14:57:42.785Z,0.80
2023-02-04T15:00:10.002Z,0.70
2023-02-04T15:02:36.590Z,0.90
2023-02-04T15:05:03.506Z,0.68
2023-02-04T15:07:29.984Z,0.70
2023-02-04T15:09:56.526Z,0.60
2023-02-04T15:12:23.014Z,1.40
2023-02-04T15:14:49.494Z,1.30
2023-02-04T15:17:16.034Z,0.95
2023-02-04T15:19:42.549Z,0.70
2023-02-04T15:22:10.403Z,1.02
2023-02-04T15:24:36.909Z,0.73
2023-02-04T15:27:04.509Z,1.48
2023-02-04T15:29:31.070Z,0.70
2023-02-04T15:31:57.634Z,0.75
2023-02-04T15:34:24.217Z,1.02
2023-02-04T15:36:51.103Z,0.65
2023-02-04T15:39:17.981Z,0.80
2023-02-04T15:41:44.475Z,1.20
2023-02-04T15:44:10.972Z,1.25
2023-02-04T15:46:37.511Z,0.90
2023-02-04T15:49:04.487Z,1.20
2023-02-04T15:51:30.994Z,1.27
2023-02-04T15:53:57.488Z,1.52
2023-02-04T15:56:24.051Z,1.23
2023-02-04T15:58:50.532Z,1.98
2023-02-04T16:01:18.137Z,1.30
2023-02-04T16:03:44.663Z,1.70
2023-02-04T16:06:11.549Z,1.33
2023-02-04T16:08:38.113Z,1.10
2023-02-04T16:11:06.102Z,1.23
2023-02-04T16:13:32.868Z,1.10
2023-02-04T16:15:59.545Z,1.15
2023-02-04T16:18:26.038Z,1.20
2023-02-04T16:20:52.576Z,1.25
2023-02-04T16:23:19.110Z,1.50
2023-02-04T16:25:45.649Z,1.67
2023-02-04T16:28:12.220Z,1.65
2023-02-04T16:30:38.884Z,1.48
2023-02-04T16:33:05.693Z,1.85
2023-02-04T16:35:33.219Z,2.17
2023-02-04T16:37:59.786Z,1.60
2023-02-04T16:40:26.316Z,2.08
2023-02-04T16:42:52.797Z,1.65
2023-02-04T16:45:19.389Z,2.20
2023-02-04T16:47:45.891Z,1.70
2023-02-04T16:50:12.374Z,2.33
2023-02-04T16:52:38.840Z,2.80
2023-02-04T16:55:05.622Z,3.45
2023-02-04T16:57:32.128Z,3.88
2023-02-04T16:59:58.617Z,3.33
2023-02-04T17:02:25.180Z,3.20
2023-02-04T17:04:51.669Z,3.03
2023-02-04T17:07:18.978Z,2.80
2023-02-04T17:09:45.451Z,3.50
2023-02-04T17:12:11.971Z,3.15
2023-02-04T17:14:38.452Z,2.97
2023-02-04T17:17:04.930Z,3.20
2023-02-04T17:19:31.437Z,3.60
2023-02-04T17:21:57.906Z,3.28
2023-02-04T17:24:24.452Z,3.75
2023-02-04T17:26:50.967Z,2.40
2023-02-04T17:29:17.450Z,2.88
2023-02-04T17:31:44.354Z,2.78
2023-02-04T17:34:11.046Z,2.72
2023-02-04T17:36:38.733Z,2.60
2023-02-04T17:39:06.018Z,3.13
2023-02-04T17:41:32.493Z,3.30
2023-02-04T17:43:58.999Z,3.03
2023-02-04T17:46:25.545Z,3.45
2023-02-04T17:48:52.043Z,3.80
2023-02-04T17:51:18.556Z,3.38
2023-02-04T17:53:45.075Z,2.42
2023-02-04T17:56:12.781Z,2.33
2023-02-04T17:58:40.276Z,2.15
2023-02-04T18:01:15.348Z,2.15
2023-02-04T18:03:42.209Z,2.33
2023-02-04T18:06:23.566Z,2.25
2023-02-04T18:08:51.421Z,2.45
2023-02-04T18:11:27.877Z,2.45
2023-02-04T18:14:01.345Z,2.28
2023-02-04T18:16:30.280Z,2.30
2023-02-04T18:19:30.664Z,2.58
2023-02-04T18:21:58.590Z,2.20
2023-02-04T18:24:34.104Z,3.22
2023-02-04T18:27:06.682Z,2.53
2023-02-04T18:29:38.430Z,2.65
2023-02-04T18:32:34.530Z,2.47
2023-02-04T18:35:03.193Z,2.95
2023-02-04T18:37:34.302Z,3.13
2023-02-04T18:40:09.822Z,3.28
2023-02-04T18:42:42.207Z,5.30
2023-02-04T18:45:25.175Z,3.45
2023-02-04T18:48:21.706Z,3.85
2023-02-04T18:50:53.796Z,3.88
2023-02-04T18:53:28.196Z,4.22
2023-02-04T18:55:57.327Z,4.20
2023-02-04T18:58:33.487Z,5.00
2023-02-04T19:01:01.468Z,4.97
2023-02-04T19:03:33.222Z,4.15
2023-02-04T19:06:04.072Z,4.03
2023-02-04T19:08:43.628Z,4.47
2023-02-04T19:11:35.856Z,4.93
2023-02-04T19:14:11.993Z,5.15
2023-02-04T19:16:40.296Z,4.90
2023-02-04T19:19:25.228Z,5.30
2023-02-04T19:21:51.816Z,5.25
2023-02-04T19:24:24.767Z,5.57
2023-02-04T19:26:55.530Z,5.35
2023-02-04T19:29:21.992Z,5.43
2023-02-04T19:31:50.081Z,5.10
2023-02-04T19:34:27.904Z,5.57
2023-02-04T19:36:55.227Z,5.90
2023-02-04T19:39:38.827Z,5.50
2023-02-04T19:42:26.992Z,4.75
2023-02-04T19:44:54.294Z,5.03
2023-02-04T19:47:23.677Z,4.28
2023-02-04T19:49:50.803Z,5.60
2023-02-04T19:52:35.381Z,5.55
2023-02-04T19:55:17.175Z,6.07
2023-02-04T20:00:35.558Z,5.30
2023-02-04T20:03:12.216Z,4.57
2023-02-04T20:05:38.790Z,5.50
2023-02-04T20:08:29.594Z,7.47
2023-02-04T20:10:57.226Z,5.10
2023-02-04T20:13:25.476Z,4.75
2023-02-04T20:15:56.010Z,4.90
2023-02-04T20:18:22.575Z,5.28
2023-02-04T20:20:49.168Z,6.25
2023-02-04T20:23:28.762Z,6.10
2023-02-04T20:25:55.703Z,4.53
2023-02-04T20:28:41.310Z,5.60
2023-02-04T20:31:22.795Z,4.93
2023-02-04T20:33:53.246Z,6.13
2023-02-04T20:36:22.694Z,5.05
2023-02-04T20:38:49.167Z,6.75
2023-02-04T20:41:20.465Z,4.65
2023-02-04T20:43:50.004Z,5.18
2023-02-04T20:46:25.501Z,4.43
2023-02-04T20:48:52.415Z,5.38
2023-02-04T20:51:23.354Z,5.00
2023-02-04T20:53:53.927Z,5.32
2023-02-04T20:56:20.365Z,5.72
2023-02-04T20:58:46.798Z,4.82
2023-02-04T21:01:37.584Z,4.10
2023-02-04T21:04:27.743Z,4.80
2023-02-04T21:06:57.917Z,6.22
2023-02-04T21:09:29.323Z,4.10
2023-02-04T21:11:57.008Z,5.80
2023-02-04T21:14:25.271Z,5.03
2023-02-04T21:16:52.599Z,4.53
2023-02-04T21:19:20.956Z,4.38
2023-02-04T21:21:47.497Z,4.70
2023-02-04T21:24:14.384Z,4.35
2023-02-04T21:26:40.881Z,3.83
2023-02-04T21:29:07.518Z,4.43
2023-02-04T21:31:34.453Z,4.18
2023-02-04T21:34:00.997Z,4.35
2023-02-04T21:36:27.742Z,4.28
2023-02-04T21:38:55.465Z,4.20
2023-02-04T21:41:22.844Z,4.40
2023-02-04T21:43:49.808Z,4.43
2023-02-04T21:46:17.114Z,4.28
2023-02-04T21:48:44.686Z,5.10
2023-02-04T21:51:11.974Z,5.18
2023-02-04T21:53:39.242Z,4.65
2023-02-04T21:56:06.766Z,4.45
2023-02-04T21:58:33.205Z,5.15
2023-02-04T22:00:59.725Z,5.45
2023-02-04T22:03:26.387Z,5.22
2023-02-04T22:05:53.296Z,4.35
2023-02-04T22:08:19.930Z,4.00
2023-02-04T22:10:46.398Z,5.20
2023-02-04T22:13:12.919Z,4.22
2023-02-04T22:15:39.411Z,5.25
2023-02-04T22:18:05.920Z,5.05
2023-02-04T22:20:32.424Z,3.90
2023-02-04T22:22:58.842Z,3.70
2023-02-04T22:25:25.362Z,3.97
2023-02-04T22:27:51.860Z,4.50
2023-02-04T22:30:19.010Z,4.10
2023-02-04T22:32:45.817Z,4.07
2023-02-04T22:35:12.659Z,4.03
2023-02-04T22:37:40.287Z,4.25
2023-02-04T22:40:08.403Z,4.20
2023-02-04T22:42:34.902Z,4.82
2023-02-04T22:45:01.481Z,4.88
2023-02-04T22:47:28.008Z,4.15
2023-02-04T22:49:54.522Z,5.13
2023-02-04T22:52:21.095Z,5.78
2023-02-04T22:54:47.594Z,4.82
2023-02-04T22:57:14.114Z,4.63
2023-02-04T22:59:40.639Z,3.90
2023-02-04T23:02:07.122Z,4.25
2023-02-04T23:04:33.727Z,4.03
2023-02-04T23:07:00.875Z,4.30
2023-02-04T23:09:27.391Z,4.97
2023-02-04T23:11:53.852Z,3.85
2023-02-04T23:14:20.347Z,4.72
2023-02-04T23:16:46.805Z,4.70
2023-02-04T23:19:13.339Z,4.90
2023-02-04T23:21:39.961Z,4.50
2023-02-04T23:24:06.874Z,4.30
2023-02-04T23:26:33.530Z,3.70
2023-02-04T23:29:00.035Z,4.15
2023-02-04T23:31:26.867Z,4.07
2023-02-04T23:33:53.499Z,4.38
2023-02-04T23:36:20.001Z,3.53
2023-02-04T23:38:46.456Z,3.78
2023-02-04T23:41:12.917Z,4.55
2023-02-04T23:43:39.435Z,4.38
2023-02-04T23:46:06.001Z,4.25
2023-02-04T23:48:32.576Z,4.05
2023-02-04T23:50:59.270Z,4.15
2023-02-04T23:53:25.852Z,4.28
2023-02-04T23:55:52.505Z,4.45
2023-02-04T23:58:19.010Z,4.25
